RPLL/MNL METAR and TAF weather

Enter ICAO airport designator
Station Type Date Time Source
RPLL METAR 2020/09/19 18:00 UTC NOAA

RPLL 191800Z 01004KT 330V040 9999 FEW025 27/24 Q1010 NOSIG RMK A2983


Station Type Date Time Source
RPLL Decoded METAR 2020/09/19 18:00 UTC NOAA

Ninoy Aquino Inter-National Airport, Philippines (RPLL) 14-31N 121-00E 15M
Sep 19, 2020 - 02:00 PM EDT / 2020.09.19 1800 UTC
Wind: from the N (010 degrees) at 5 MPH (4 KT) (direction variable):0
Visibility: greater than 7 mile(s):0
Sky conditions: mostly clear
Temperature: 80 F (27 C)
Dew Point: 75 F (24 C)
Relative Humidity: 83%
Pressure (altimeter): 29.83 in. Hg (1010 hPa)
ob: RPLL 191800Z 01004KT 330V040 9999 FEW025 27/24 Q1010 NOSIG RMK A2983
cycle: 18

Station Type Date Time Source
RPLL TAF 2020/09/19 18:59 UTC NOAA

TAF RPLL 191700Z 1918/2024 11006KT 9999 FEW025 SCT300 TX33/2006Z TN26/1921Z
TEMPO 1918/1924 VRB03KT FEW023 BKN300
TEMPO 2003/2009 13010KT FEW023CB SCT025 BKN300

Example: see airport list